• Join FlightAware (Why Join?)
  • Login
  • US Flag 
02:42AM EDT


 

Airport Tracker/Info


-or-


 

Live Flight TrackerFlight Track Log ✈ UAL752 ✈ 18-May-2013 ✈ KDEN - KBWI

Flight Track Log - Related Links

Times and Time Zones

All times are in EDT time to prevent confusion due to time zone crossing. See the UAL752 flight status page for this flight to view local times or setup timezone preferences in your user account.

Time Position Orientation Groundspeed Altitude Reporting Facility
EDT Latitude Longitude Course Direction KTS MPH feet Rate Location/Type
12:05PM 39.8833 -104.6000 72° East 183 211 6,400  Level Denver TRACON
12:06PM 39.8833 -104.5333 90° East 225 259 7,200 1,560 Climbing Denver TRACON
12:07PM 39.8667 -104.4500 105° East 264 304 9,400 2,160 Climbing Denver TRACON
12:08PM 39.8667 -104.2076 90° East  Level FlightAware Approximate
12:08PM 39.8742 -104.3917 80° East 266 306 10,600  Level Denver Center
12:09PM 39.8667 -104.0541 90° East  Level FlightAware Approximate
12:09PM 39.8742 -104.2678 90° East 315 362 12,800  Level Denver Center
12:10PM 39.8667 -103.9007 90° East  Level FlightAware Approximate
12:10PM 39.8736 -104.1511 90° East 323 372 16,500  Level Denver Center
12:11PM 39.8792 -103.7498 72° East  Level FlightAware Approximate
12:11PM 39.8725 -104.0308 91° East 334 384 18,900  Level Denver Center
12:12PM 39.8731 -103.8606 90° East 382 440 21,700 2,040 Climbing Denver Center
12:13PM 39.8853 -103.7139 84° East 395 455 23,200 1,320 Climbing Denver Center
12:14PM 39.9053 -103.5469 81° East 414 476 24,500 1,200 Climbing Denver Center
12:15PM 39.9214 -103.3986 82° East 439 505 25,700 1,740 Climbing Denver Center
12:16PM 39.9414 -103.2264 81° East 434 499 28,100 1,500 Climbing Denver Center
12:17PM 39.9575 -103.0797 82° East 429 494 28,900 960 Climbing Denver Center
12:18PM 39.9767 -102.9036 82° East 438 504 30,100 780 Climbing Denver Center
12:19PM 39.9933 -102.7492 82° East 446 513 30,600 420 Climbing Denver Center
12:20PM 40.0136 -102.5594 82° East 470 541 31,000 480 Climbing Denver Center
12:21PM 40.0314 -102.3925 82° East 480 552 31,700 720 Climbing Denver Center
12:22PM 40.0478 -102.2250 83° East 487 560 32,500 600 Climbing Denver Center
12:23PM 40.0644 -102.0578 83° East 488 562 33,000 240 Climbing Denver Center
12:24PM 40.0844 -101.8603 82° East 493 567 33,000  Level Denver Center
12:25PM 40.1039 -101.6619 83° East 496 571 33,000  Level Denver Center
12:26PM 40.1214 -101.4922 82° East 495 570 33,000  Level Denver Center
12:28PM 40.1397 -101.2942 83° East 494 568 33,000 60 Level Denver Center
12:29PM 40.1561 -101.1231 83° East 497 572 33,200 480 Climbing Denver Center
12:30PM 40.1742 -100.9250 83° East 494 568 34,100 840 Climbing Denver Center
12:31PM 40.1869 -100.7592 84° East 484 557 35,000 420 Climbing Denver Center
12:32PM 40.2011 -100.5706 84° East 471 542 35,000  Level Denver Center
12:33PM 40.2128 -100.4086 85° East 471 542 35,000  Level Denver Center
12:34PM 40.2272 -100.2169 84° East 475 547 35,000  Level Denver Center
12:35PM 40.2389 -100.0517 85° East 479 551 35,000  Level Denver Center
12:36PM 40.2514 -99.8550 85° East 480 552 35,000  Level Denver Center
12:37PM 40.2644 -99.6819 84° East 479 551 35,000  Level Denver Center
12:38PM 40.2761 -99.5075 85° East 481 554 35,000  Level Denver Center
12:39PM 40.2878 -99.3356 85° East 477 549 35,000  Level Denver Center
12:40PM 40.2975 -99.1631 86° East 476 548 35,000  Level Denver Center
12:41PM 40.3106 -98.9603 85° East 468 539 35,000  Level Denver Center
12:42PM 40.3208 -98.7942 85° East 467 537 35,000  Level Minneapolis Center
12:43PM 40.3303 -98.6264 86° East 464 534 35,000  Level Minneapolis Center
12:44PM 40.3419 -98.4253 86° East 464 534 35,000  Level Minneapolis Center
12:45PM 40.3508 -98.2567 86° East 465 535 35,000  Level Minneapolis Center
12:46PM 40.3603 -98.0881 86° East 466 536 35,000  Level Minneapolis Center
12:47PM 40.3686 -97.9172 86° East 470 541 35,000  Level Minneapolis Center
12:48PM 40.3772 -97.7475 86° East 468 539 35,000  Level Minneapolis Center
12:49PM 40.3850 -97.5781 86° East 467 537 35,000  Level Minneapolis Center
12:50PM 40.3947 -97.4092 86° East 466 536 35,000  Level Minneapolis Center
12:51PM 40.4022 -97.2328 87° East 467 537 35,000  Level Minneapolis Center
12:52PM 40.4097 -97.0656 87° East 464 534 35,000  Level Minneapolis Center
12:53PM 40.4194 -96.8636 86° East 464 534 35,000  Level Minneapolis Center
12:54PM 40.4261 -96.6961 87° East 462 532 35,000  Level Minneapolis Center
12:55PM 40.4331 -96.5267 87° East 465 535 35,000  Level Minneapolis Center
12:56PM 40.4386 -96.3581 87° East 464 534 35,000  Level Minneapolis Center
12:58PM 40.4464 -96.1889 86° East 466 536 35,000  Level Minneapolis Center
12:59PM 40.4528 -96.0203 87° East 466 536 35,000  Level Minneapolis Center
01:00PM 40.4583 -95.8489 88° East 470 541 35,000  Level Minneapolis Center
01:01PM 40.4650 -95.6456 87° East 469 540 35,000  Level Minneapolis Center
01:02PM 40.4703 -95.4756 88° East 469 540 35,000  Level Minneapolis Center
01:03PM 40.4758 -95.3058 87° East 468 539 35,000  Level Minneapolis Center
01:04PM 40.4817 -95.1025 88° East 466 536 35,000  Level Minneapolis Center
01:05PM 40.4869 -94.9314 88° East 469 540 35,000  Level Minneapolis Center
01:06PM 40.4928 -94.7583 87° East 473 544 35,000  Level Minneapolis Center
01:07PM 40.4953 -94.5436 89° East 474 545 35,100  Climbing Minneapolis Center
01:08PM 40.5000 -94.3722 88° East 473 544 35,000 -60 Descending Minneapolis Center
01:09PM 40.5044 -94.1658 88° East 474 545 35,000  Level Minneapolis Center
01:10PM 40.5072 -93.9961 89° East 470 541 35,000  Level Minneapolis Center
01:11PM 40.5094 -93.8278 89° East 466 536 35,000  Level Minneapolis Center
01:12PM 40.5125 -93.6578 89° East 467 537 35,000  Level Minneapolis Center
01:13PM 40.5139 -93.4886 89° East 467 537 35,000  Level Minneapolis Center
01:14PM 40.5161 -93.3181 89° East 468 539 35,000  Level Minneapolis Center
01:15PM 40.5194 -93.1131 89° East 470 541 35,000  Level Minneapolis Center
01:16PM 40.5217 -92.9414 89° East 470 541 35,000  Level Minneapolis Center
01:17PM 40.5233 -92.7703 89° East 469 540 35,000  Level Minneapolis Center
01:18PM 40.5250 -92.5981 89° East 468 539 35,000  Level Minneapolis Center
01:20PM 40.5258 -92.4250 90° East 469 540 35,000  Level Minneapolis Center
01:21PM 40.5256 -92.2550 90° East 466 536 35,000  Level Minneapolis Center
01:21PM 40.5261 -92.1886 89° East 464 534 35,000  Level Chicago Center
01:22PM 40.5258 -92.0556 90° East 459 528 35,000  Level Kansas City Center
01:23PM 40.5258 -91.8894 90° East 457 526 35,000  Level Kansas City Center
01:24PM 40.5250 -91.7247 90° East 454 522 35,000  Level Kansas City Center
01:25PM 40.5247 -91.5264 90° East 455 524 35,000  Level Kansas City Center
01:26PM 40.5239 -91.3589 90° East 459 528 35,000  Level Kansas City Center
01:27PM 40.5222 -91.1942 91° East 458 527 35,000  Level Kansas City Center
01:28PM 40.5225 -91.0272 90° East 458 527 35,000  Level Kansas City Center
01:29PM 40.5211 -90.8592 91° East 459 528 35,000  Level Kansas City Center
01:30PM 40.5189 -90.6597 91° East 457 526 35,000  Level Kansas City Center
01:31PM 40.5172 -90.4933 91° East 457 526 35,000  Level Kansas City Center
01:32PM 40.5153 -90.3269 91° East 458 527 35,000  Level Kansas City Center
01:33PM 40.5125 -90.1608 91° East 458 527 35,000  Level Kansas City Center
01:34PM 40.5097 -89.9933 91° East 460 529 35,000  Level Kansas City Center
01:35PM 40.5064 -89.8283 91° East 461 531 35,000  Level Kansas City Center
01:36PM 40.5031 -89.6297 91° East 462 532 35,000  Level Kansas City Center
01:37PM 40.4997 -89.4647 91° East 459 528 35,000  Level Kansas City Center
01:38PM 40.4964 -89.2978 91° East 459 528 35,000  Level Kansas City Center
01:39PM 40.4931 -89.1314 91° East 458 527 35,000  Level Kansas City Center
01:40PM 40.4894 -88.9664 92° East 455 524 35,000  Level Kansas City Center
01:41PM 40.4833 -88.7703 92° East 452 520 35,000  Level Kansas City Center
01:43PM 40.4783 -88.5678 92° East 450 518 35,000  Level Chicago Center
01:44PM 40.4736 -88.4047 92° East 450 518 35,000  Level Chicago Center
01:45PM 40.4686 -88.2433 92° East 448 516 35,000  Level Chicago Center
01:46PM 40.4633 -88.0814 92° East 449 517 35,000  Level Chicago Center
01:47PM 40.4583 -87.9203 92° East 447 514 35,000  Level Chicago Center
01:48PM 40.4536 -87.7583 92° East 448 516 35,000  Level Chicago Center
01:49PM 40.4453 -87.5642 93° East 449 517 35,000  Level Chicago Center
01:50PM 40.4394 -87.4094 93° East 448 516 35,000  Level Chicago Center
01:51PM 40.4331 -87.2450 93° East 451 519 35,000  Level Chicago Center
01:52PM 40.4267 -87.0819 93° East 449 517 35,000  Level Chicago Center
01:53PM 40.4197 -86.9192 93° East 447 514 35,000  Level Chicago Center
01:54PM 40.4128 -86.7547 93° East 449 517 35,000  Level Chicago Center
01:55PM 40.4039 -86.5586 93° East 449 517 35,000  Level Chicago Center
01:56PM 40.3961 -86.3958 94° East 448 516 35,000  Level Chicago Center
01:57PM 40.3878 -86.2319 94° East 449 517 35,000  Level Chicago Center
01:58PM 40.3800 -86.0669 93° East 451 519 35,000  Level Chicago Center
01:59PM 40.3719 -85.9003 94° East 455 524 35,000  Level Chicago Center
02:00PM 40.3628 -85.7350 94° East 454 522 35,000  Level Chicago Center
02:01PM 40.3544 -85.5683 94° East 455 524 35,000  Level Chicago Center
02:02PM 40.3453 -85.4039 94° East 453 521 35,000  Level Chicago Center
02:03PM 40.3389 -85.3042 95° East 452 520 35,000  Level Indianapolis Center
02:04PM 40.3289 -85.1386 94° East 455 524 35,000  Level Indianapolis Center
02:05PM 40.3200 -84.9736 94° East 455 524 35,000  Level Indianapolis Center
02:06PM 40.3083 -84.7956 95° East 454 522 35,000 -60 Level Indianapolis Center
02:07PM 40.2981 -84.6300 95° East 452 520 34,900 -60 Descending Indianapolis Center
02:08PM 40.2881 -84.4647 94° East 452 520 34,900  Level Indianapolis Center
02:09PM 40.2767 -84.2975 95° East 456 525 34,900  Level Indianapolis Center
02:10PM 40.2656 -84.1331 95° East 450 518 35,000  Climbing Indianapolis Center
02:11PM 40.2550 -83.9672 95° East 452 520 35,000 -60 Level Indianapolis Center
02:12PM 40.2431 -83.8011 95° East 453 521 34,900 -60 Descending Indianapolis Center
02:13PM 40.2317 -83.6347 95° East 452 520 34,900  Level Indianapolis Center
02:14PM 40.2192 -83.4675 96° East 453 521 35,000  Climbing Indianapolis Center
02:15PM 40.2064 -83.2994 96° East 456 525 35,000  Level Indianapolis Center
02:16PM 40.1894 -83.1333 98° East 455 524 35,000  Level Indianapolis Center
02:17PM 40.1747 -82.9678 97° East 454 522 35,000 -60 Level Indianapolis Center
02:18PM 40.1581 -82.8025 97° East 453 521 34,900 -60 Descending Indianapolis Center
02:19PM 40.1431 -82.6378 97° East 452 520 34,900  Level Indianapolis Center
02:20PM 40.1264 -82.4722 97° East 455 524 35,000  Climbing Indianapolis Center
02:21PM 40.1100 -82.3061 97° East 457 526 35,000  Level Indianapolis Center
02:22PM 40.0925 -82.1383 98° East 462 532 35,000  Level Indianapolis Center
02:23PM 40.0728 -81.9428 97° East 462 532 35,000  Level Indianapolis Center
02:24PM 40.0550 -81.7758 98° East 462 532 35,000  Level Indianapolis Center
02:25PM 40.0394 -81.6183 97° East 462 532 35,000 -240 Level Indianapolis Center
02:26PM 40.0172 -81.4514 100° East 464 534 34,600 -540 Descending Indianapolis Center
02:27PM 39.9933 -81.2839 100° East 467 537 34,000 -660 Descending Indianapolis Center
02:28PM 39.9722 -81.1114 99° East 469 540 33,400 -540 Descending Cleveland Center
02:29PM 39.9497 -80.9433 100° East 469 540 33,000 -240 Descending Cleveland Center
02:30PM 39.9231 -80.7753 102° East 469 540 33,000  Level Cleveland Center
02:31PM 39.8983 -80.6075 101° East 469 540 33,000  Level Cleveland Center
02:32PM 39.8733 -80.4397 101° East 469 540 33,000  Level Cleveland Center
02:33PM 39.8478 -80.2694 101° East 469 540 33,000  Level Cleveland Center
02:34PM 39.8203 -80.1019 102° East 469 540 33,000  Level Cleveland Center
02:35PM 39.7964 -79.9319 100° East 469 540 33,000  Level Cleveland Center
02:36PM 39.7703 -79.7619 101° East 469 540 33,000 -420 Level Cleveland Center
02:37PM 39.7378 -79.5636 102° East 486 559 32,200 -1,320 Descending Washington Center
02:38PM 39.7119 -79.3950 101° East 481 554 30,200 -2,160 Descending Washington Center
02:39PM 39.6861 -79.2236 101° East 481 554 28,000 -2,160 Descending Washington Center
02:40PM 39.6556 -79.0578 103° East 481 554 25,900 -2,040 Descending Washington Center
02:41PM 39.6225 -78.9025 105° East 475 547 23,900 -2,040 Descending Washington Center
02:42PM 39.5850 -78.7392 107° East 480 552 21,800 -2,220 Descending Washington Center
02:43PM 39.5517 -78.5817 105° East 473 544 19,600 -2,040 Descending Washington Center
02:44PM 39.5156 -78.4297 107° East 452 520 17,800 -1,980 Descending Washington Center
02:45PM 39.4836 -78.2806 105° East 437 503 15,700 -1,380 Descending Washington Center
02:46PM 39.4514 -78.1367 106° East 425 489 15,000 -360 Descending Washington Center
02:47PM 39.4522 -77.9889 90° East 415 478 15,100  Climbing Washington Center
02:48PM 39.4489 -77.8464 92° East 408 470 15,100 -300 Level Washington Center
02:49PM 39.4469 -77.7147 91° East 383 441 14,500 -960 Descending Washington Center
02:50PM 39.4492 -77.5964 89° East 354 407 13,200 -1,260 Descending Washington Center
02:51PM 39.4467 -77.4861 92° East 325 374 12,000 -1,140 Descending Washington Center
02:52PM 39.4461 -77.3786 90° East 305 351 11,000 -480 Descending Washington Center
02:53PM 39.4561 -77.2714 83° East 300 345 11,100 -1,200 Climbing Washington Center
02:54PM 39.4833 -77.1667 71° East 295 339 8,900 -2,760 Descending Potomac TRACON
02:55PM 39.4833 -77.0833 90° East 288 331 6,100 -2,400 Descending Potomac TRACON
02:56PM 39.4500 -77.0000 117° Southeast 269 310 4,100 -1,560 Descending Potomac TRACON
02:57PM 39.4000 -76.9167 128° Southeast 252 290 3,000 -600 Descending Potomac TRACON
02:58PM 39.3667 -76.8500 123° Southeast 250 288 3,000  Level Potomac TRACON
02:59PM 39.3167 -76.8000 142° Southeast 197 227 3,000  Level Potomac TRACON